createdAt,value
2023-12-11T00:00:16.547Z,1.40
2023-12-11T00:01:19.230Z,1.41
2023-12-11T00:02:22.028Z,1.42
2023-12-11T00:03:24.721Z,1.43
2023-12-11T00:04:27.394Z,1.44
2023-12-11T00:05:30.020Z,1.46
2023-12-11T00:06:32.681Z,1.47
2023-12-11T00:07:35.272Z,1.48
2023-12-11T00:08:37.897Z,1.49
2023-12-11T00:09:40.542Z,1.51
2023-12-11T00:10:43.200Z,1.53
2023-12-11T00:11:45.791Z,1.54
2023-12-11T00:12:48.421Z,1.55
2023-12-11T00:13:51.311Z,1.57
2023-12-11T00:14:55.383Z,1.58
2023-12-11T00:15:59.122Z,1.59
2023-12-11T00:17:01.787Z,1.60
2023-12-11T00:18:04.460Z,1.61
2023-12-11T00:19:07.241Z,1.62
2023-12-11T00:20:10.589Z,1.63
2023-12-11T00:21:13.285Z,1.64
2023-12-11T00:22:15.918Z,1.65
2023-12-11T00:23:18.516Z,1.66
2023-12-11T00:24:21.131Z,1.66
2023-12-11T00:25:23.766Z,1.66
2023-12-11T00:26:26.390Z,1.67
2023-12-11T00:27:29.592Z,1.67
2023-12-11T00:28:32.453Z,1.67
2023-12-11T00:29:35.062Z,1.68
2023-12-11T00:30:37.683Z,1.68
2023-12-11T00:31:40.474Z,1.68
2023-12-11T00:32:43.092Z,1.67
2023-12-11T00:33:45.942Z,1.66
2023-12-11T00:34:48.706Z,1.65
2023-12-11T00:35:51.660Z,1.65
2023-12-11T00:36:54.347Z,1.65
2023-12-11T00:37:56.987Z,1.64
2023-12-11T00:38:59.614Z,1.64
2023-12-11T00:40:02.303Z,1.63
2023-12-11T00:41:05.122Z,1.62
2023-12-11T00:42:07.805Z,1.60
2023-12-11T00:43:10.477Z,1.60
2023-12-11T00:44:13.163Z,1.59
2023-12-11T00:45:15.763Z,1.58
2023-12-11T00:46:25.299Z,1.57
2023-12-11T00:47:28.381Z,1.56
2023-12-11T00:48:31.355Z,1.55
2023-12-11T00:49:34.155Z,1.54
2023-12-11T00:50:36.856Z,1.53
2023-12-11T00:51:39.503Z,1.52
2023-12-11T00:52:42.197Z,1.50
2023-12-11T00:53:46.026Z,1.49
2023-12-11T00:54:48.656Z,1.48
2023-12-11T00:55:51.324Z,1.46
2023-12-11T00:56:53.956Z,1.45
2023-12-11T00:57:56.648Z,1.44
2023-12-11T00:58:59.248Z,1.44
2023-12-11T01:00:01.843Z,1.43
2023-12-11T01:01:04.970Z,1.42
2023-12-11T01:02:07.638Z,1.41
2023-12-11T01:03:10.313Z,1.41
2023-12-11T01:04:13.854Z,1.40
2023-12-11T01:05:16.614Z,1.39
2023-12-11T01:06:19.240Z,1.38
2023-12-11T01:07:21.819Z,1.37
2023-12-11T01:08:28.895Z,1.36
2023-12-11T01:09:31.545Z,1.35
2023-12-11T01:10:34.138Z,1.34
2023-12-11T01:11:36.799Z,1.33
2023-12-11T01:12:39.472Z,1.32
2023-12-11T01:13:42.247Z,1.32
2023-12-11T01:14:44.824Z,1.30
2023-12-11T01:15:47.423Z,1.29
2023-12-11T01:16:51.051Z,1.29
2023-12-11T01:17:53.904Z,1.28
2023-12-11T01:18:56.794Z,1.27
2023-12-11T01:19:59.549Z,1.25
2023-12-11T01:21:02.208Z,1.25
2023-12-11T01:22:04.884Z,1.24
2023-12-11T01:23:07.474Z,1.24
2023-12-11T01:24:10.096Z,1.23
2023-12-11T01:25:12.816Z,1.22
2023-12-11T01:26:15.447Z,1.21
2023-12-11T01:27:18.093Z,1.21
2023-12-11T01:28:20.693Z,1.20
2023-12-11T01:29:23.356Z,1.18
2023-12-11T01:30:25.968Z,1.17
2023-12-11T01:31:28.552Z,1.16
2023-12-11T01:32:31.163Z,1.15
2023-12-11T01:33:34.075Z,1.15
2023-12-11T01:34:36.905Z,1.14
2023-12-11T01:35:39.582Z,1.13
2023-12-11T01:36:44.065Z,1.12
2023-12-11T01:37:46.700Z,1.11
2023-12-11T01:38:51.348Z,1.10
2023-12-11T01:39:54.036Z,1.10
2023-12-11T01:40:56.793Z,1.09
2023-12-11T01:41:59.597Z,1.09
2023-12-11T01:43:19.271Z,1.09
2023-12-11T01:44:22.574Z,1.08
2023-12-11T01:45:25.234Z,1.07
2023-12-11T01:46:27.866Z,1.07
2023-12-11T01:47:30.725Z,1.06
2023-12-11T01:48:34.004Z,1.06
2023-12-11T01:49:37.492Z,1.06
2023-12-11T01:50:40.325Z,1.05
2023-12-11T01:51:43.492Z,1.04
2023-12-11T01:52:46.086Z,1.04
2023-12-11T01:53:50.414Z,1.03
2023-12-11T01:54:53.710Z,1.03
2023-12-11T01:55:56.798Z,1.03
2023-12-11T01:56:59.393Z,1.03
2023-12-11T01:58:02.990Z,1.03
2023-12-11T01:59:05.753Z,1.03
2023-12-11T02:01:26.934Z,1.03
2023-12-11T02:02:31.175Z,1.03
2023-12-11T02:03:33.935Z,1.03
2023-12-11T02:04:36.812Z,1.03
2023-12-11T02:05:39.840Z,1.03
2023-12-11T02:06:42.768Z,1.03
2023-12-11T02:07:45.580Z,1.04
2023-12-11T02:08:48.217Z,1.04
2023-12-11T02:09:50.827Z,1.04
2023-12-11T02:10:53.466Z,1.04
2023-12-11T02:11:59.036Z,1.04
2023-12-11T02:13:01.742Z,1.04
2023-12-11T02:14:04.873Z,1.04
2023-12-11T02:15:07.946Z,1.04
2023-12-11T02:16:17.317Z,1.04
2023-12-11T02:17:20.129Z,1.04
2023-12-11T02:18:23.437Z,1.03
2023-12-11T02:19:26.262Z,1.03
2023-12-11T02:20:28.865Z,1.03
2023-12-11T02:21:31.547Z,1.03
2023-12-11T02:22:34.231Z,1.02
2023-12-11T02:23:56.905Z,1.02
2023-12-11T02:25:03.676Z,1.02
2023-12-11T02:26:12.765Z,1.02
2023-12-11T02:27:15.701Z,1.02
2023-12-11T02:28:18.670Z,1.02
2023-12-11T02:29:21.439Z,1.01
2023-12-11T02:30:24.034Z,1.02
2023-12-11T02:31:26.773Z,1.02
2023-12-11T02:32:29.426Z,1.02
2023-12-11T02:33:32.285Z,1.02
2023-12-11T02:34:34.992Z,1.02
2023-12-11T02:35:42.341Z,1.03
2023-12-11T02:36:45.025Z,1.03
2023-12-11T02:37:47.735Z,1.03
2023-12-11T02:38:50.406Z,1.03
2023-12-11T02:39:53.086Z,1.03
2023-12-11T02:40:55.701Z,1.04
2023-12-11T02:41:58.268Z,1.04
2023-12-11T02:43:00.939Z,1.04
2023-12-11T02:44:03.552Z,1.04
2023-12-11T02:45:06.759Z,1.05
2023-12-11T02:46:09.493Z,1.06
2023-12-11T02:47:12.126Z,1.07
2023-12-11T02:48:15.247Z,1.07
2023-12-11T02:49:18.090Z,1.08
2023-12-11T02:50:20.731Z,1.09
2023-12-11T02:51:23.375Z,1.10
2023-12-11T02:52:26.016Z,1.10
2023-12-11T02:53:28.621Z,1.11
2023-12-11T02:54:31.294Z,1.11
2023-12-11T02:55:33.968Z,1.12
2023-12-11T02:56:40.186Z,1.13
2023-12-11T02:57:42.790Z,1.13
2023-12-11T02:58:45.679Z,1.14
2023-12-11T02:59:48.396Z,1.14
2023-12-11T03:00:51.098Z,1.15
2023-12-11T03:01:53.931Z,1.16
2023-12-11T03:02:56.954Z,1.16
2023-12-11T03:03:59.727Z,1.16
2023-12-11T03:05:02.536Z,1.16
2023-12-11T03:06:05.891Z,1.17
2023-12-11T03:07:08.543Z,1.18
2023-12-11T03:08:11.165Z,1.18
2023-12-11T03:09:13.791Z,1.18
2023-12-11T03:10:16.910Z,1.18
2023-12-11T03:11:19.479Z,1.19
2023-12-11T03:12:22.097Z,1.20
2023-12-11T03:13:24.732Z,1.21
2023-12-11T03:14:27.353Z,1.21
2023-12-11T03:15:31.884Z,1.22
2023-12-11T03:16:34.573Z,1.23
2023-12-11T03:17:37.361Z,1.23
2023-12-11T03:18:41.317Z,1.24
2023-12-11T03:19:44.090Z,1.24
2023-12-11T03:20:46.783Z,1.25
2023-12-11T03:21:49.439Z,1.26
2023-12-11T03:22:52.110Z,1.26
2023-12-11T03:23:54.720Z,1.27
2023-12-11T03:24:57.438Z,1.28
2023-12-11T03:26:00.098Z,1.28
2023-12-11T03:27:02.712Z,1.29
2023-12-11T03:28:05.351Z,1.30
2023-12-11T03:29:07.989Z,1.31
2023-12-11T03:30:10.833Z,1.32
2023-12-11T03:31:13.497Z,1.33
2023-12-11T03:32:16.179Z,1.33
2023-12-11T03:33:18.853Z,1.34
2023-12-11T03:34:21.563Z,1.35
2023-12-11T03:35:24.266Z,1.36
2023-12-11T03:36:26.871Z,1.37
2023-12-11T03:37:29.746Z,1.38
2023-12-11T03:38:32.494Z,1.39
2023-12-11T03:39:35.143Z,1.40
2023-12-11T03:40:37.767Z,1.41
2023-12-11T03:41:40.360Z,1.42
2023-12-11T03:42:44.720Z,1.43
2023-12-11T03:43:48.716Z,1.44
2023-12-11T03:44:51.349Z,1.45
2023-12-11T03:45:57.308Z,1.45
2023-12-11T03:47:00.045Z,1.46
2023-12-11T03:48:02.945Z,1.48
2023-12-11T03:49:05.659Z,1.49
2023-12-11T03:50:08.779Z,1.50
2023-12-11T03:51:11.358Z,1.52
2023-12-11T03:52:13.987Z,1.53
2023-12-11T03:53:16.840Z,1.55
2023-12-11T03:54:19.620Z,1.56
2023-12-11T03:55:22.470Z,1.57
2023-12-11T03:56:25.583Z,1.58
2023-12-11T03:57:28.407Z,1.59
2023-12-11T03:58:31.195Z,1.60
2023-12-11T03:59:34.623Z,1.61
2023-12-11T04:00:37.529Z,1.62
2023-12-11T04:01:40.448Z,1.63
2023-12-11T04:02:43.119Z,1.64
2023-12-11T04:03:45.823Z,1.65
2023-12-11T04:04:48.569Z,1.65
2023-12-11T04:05:51.273Z,1.66
2023-12-11T04:06:53.976Z,1.67
2023-12-11T04:07:56.947Z,1.68
2023-12-11T04:08:59.639Z,1.69
2023-12-11T04:10:02.459Z,1.70
2023-12-11T04:11:05.218Z,1.71
2023-12-11T04:12:07.929Z,1.72
2023-12-11T04:13:10.565Z,1.73
2023-12-11T04:14:13.490Z,1.74
2023-12-11T04:15:16.124Z,1.75
2023-12-11T04:16:18.685Z,1.76
2023-12-11T04:17:21.383Z,1.76
2023-12-11T04:18:24.052Z,1.77
2023-12-11T04:19:26.762Z,1.78
2023-12-11T04:20:29.486Z,1.79
2023-12-11T04:21:32.929Z,1.80
2023-12-11T04:22:35.573Z,1.81
2023-12-11T04:23:38.196Z,1.82
2023-12-11T04:24:40.837Z,1.83
2023-12-11T04:25:43.480Z,1.84
2023-12-11T04:26:46.121Z,1.85
2023-12-11T04:27:48.746Z,1.86
2023-12-11T04:28:51.370Z,1.88
2023-12-11T04:29:53.978Z,1.89
2023-12-11T04:30:56.621Z,1.90
2023-12-11T04:31:59.219Z,1.91
2023-12-11T04:33:02.045Z,1.93
2023-12-11T04:34:04.899Z,1.94
2023-12-11T04:35:07.722Z,1.96
2023-12-11T04:36:10.362Z,1.97
2023-12-11T04:37:13.299Z,1.98
2023-12-11T04:38:16.004Z,1.99
2023-12-11T04:39:18.629Z,1.99
2023-12-11T04:40:21.231Z,1.99
2023-12-11T04:41:23.821Z,2.00
2023-12-11T04:42:26.404Z,2.00
2023-12-11T04:43:31.776Z,2.01
2023-12-11T04:44:34.880Z,2.02
2023-12-11T04:45:37.511Z,2.02
2023-12-11T04:46:40.189Z,2.02
2023-12-11T04:47:42.861Z,2.03
2023-12-11T04:48:45.660Z,2.03
2023-12-11T04:49:48.530Z,2.03
2023-12-11T04:50:51.254Z,2.04
2023-12-11T04:51:53.952Z,2.04
2023-12-11T04:52:56.612Z,2.05
2023-12-11T04:54:00.079Z,2.05
2023-12-11T04:55:02.888Z,2.05
2023-12-11T04:56:09.238Z,2.05
2023-12-11T04:57:11.897Z,2.05
2023-12-11T04:58:14.738Z,2.05
2023-12-11T04:59:17.362Z,2.04
2023-12-11T05:00:20.121Z,2.03
2023-12-11T05:01:23.466Z,2.03
2023-12-11T05:02:26.122Z,2.02
2023-12-11T05:03:28.736Z,2.01
2023-12-11T05:04:31.369Z,2.00
2023-12-11T05:05:35.930Z,1.98
2023-12-11T05:06:38.627Z,1.95
2023-12-11T05:07:42.011Z,1.95
2023-12-11T05:08:44.640Z,1.95
2023-12-11T05:09:47.388Z,1.94
2023-12-11T05:10:50.089Z,1.94
2023-12-11T05:11:52.725Z,1.93
2023-12-11T05:12:55.388Z,1.93
2023-12-11T05:13:58.033Z,1.92
2023-12-11T05:15:03.421Z,1.92
2023-12-11T05:16:06.543Z,1.91
2023-12-11T05:17:09.254Z,1.91
2023-12-11T05:18:12.024Z,1.91
2023-12-11T05:19:14.803Z,1.91
2023-12-11T05:20:19.545Z,1.91
2023-12-11T05:21:23.343Z,1.91
2023-12-11T05:22:25.991Z,1.91
2023-12-11T05:23:28.618Z,1.91
2023-12-11T05:24:31.266Z,1.91
2023-12-11T05:25:34.143Z,1.92
2023-12-11T05:26:36.782Z,1.93
2023-12-11T05:27:39.393Z,1.93
2023-12-11T05:28:41.987Z,1.93
2023-12-11T05:29:44.563Z,1.94
2023-12-11T05:30:47.213Z,1.94
2023-12-11T05:31:50.034Z,1.95
2023-12-11T05:32:52.679Z,1.96
2023-12-11T05:33:55.390Z,1.97
2023-12-11T05:34:58.103Z,1.97
2023-12-11T05:36:00.673Z,1.99
2023-12-11T05:37:03.353Z,2.01
2023-12-11T05:38:06.100Z,2.02
2023-12-11T05:39:08.714Z,2.03
2023-12-11T05:40:21.984Z,2.04
2023-12-11T05:41:27.251Z,2.05
2023-12-11T05:42:29.884Z,2.06
2023-12-11T05:43:32.471Z,2.06
2023-12-11T05:44:35.089Z,2.07
2023-12-11T05:45:37.755Z,2.07
2023-12-11T05:46:40.394Z,2.08
2023-12-11T05:47:43.228Z,2.08
2023-12-11T05:48:45.989Z,2.08
2023-12-11T05:49:48.941Z,2.08
2023-12-11T05:50:51.580Z,2.08
2023-12-11T05:51:54.773Z,2.08
2023-12-11T05:52:57.494Z,2.08
2023-12-11T05:54:00.151Z,2.08
2023-12-11T05:55:02.932Z,2.09
2023-12-11T05:56:06.515Z,2.09
2023-12-11T05:57:09.130Z,2.09
2023-12-11T05:58:11.820Z,2.09
2023-12-11T05:59:14.438Z,2.09
2023-12-11T06:00:17.420Z,2.09
2023-12-11T06:01:20.140Z,2.10
2023-12-11T06:02:22.855Z,2.10
2023-12-11T06:03:25.552Z,2.10
2023-12-11T06:04:28.188Z,2.10
2023-12-11T06:05:30.824Z,2.11
2023-12-11T06:06:33.581Z,2.11
2023-12-11T06:07:36.492Z,2.11
2023-12-11T06:08:39.095Z,2.11
2023-12-11T06:09:41.735Z,2.10
2023-12-11T06:10:44.350Z,2.10
2023-12-11T06:11:46.975Z,2.09
2023-12-11T06:12:49.708Z,2.08
2023-12-11T06:13:52.471Z,2.08
2023-12-11T06:14:55.112Z,2.07
2023-12-11T06:15:57.733Z,2.06
2023-12-11T06:17:01.161Z,2.05
2023-12-11T06:18:03.917Z,2.04
2023-12-11T06:19:06.767Z,2.04
2023-12-11T06:20:11.025Z,2.04
2023-12-11T06:21:21.109Z,2.05
2023-12-11T06:22:23.753Z,2.05
2023-12-11T06:23:26.397Z,2.06
2023-12-11T06:24:29.597Z,2.07
2023-12-11T06:25:32.206Z,2.07
2023-12-11T06:26:35.705Z,2.08
2023-12-11T06:27:38.404Z,2.08
2023-12-11T06:28:41.081Z,2.09
2023-12-11T06:29:43.858Z,2.10
2023-12-11T06:30:46.579Z,2.11
2023-12-11T06:31:49.205Z,2.12
2023-12-11T06:32:54.054Z,2.12
2023-12-11T06:33:57.805Z,2.13
2023-12-11T06:35:01.017Z,2.13
2023-12-11T06:36:03.793Z,2.13
2023-12-11T06:37:07.264Z,2.12
2023-12-11T06:38:10.607Z,2.12
2023-12-11T06:39:13.193Z,2.12
2023-12-11T06:40:15.902Z,2.11
2023-12-11T06:41:20.203Z,2.10
2023-12-11T06:42:25.277Z,2.10
2023-12-11T06:43:27.867Z,2.10
2023-12-11T06:44:30.669Z,2.09
2023-12-11T06:45:36.352Z,2.08
2023-12-11T06:46:40.792Z,2.08
2023-12-11T06:47:47.396Z,2.07
2023-12-11T06:48:54.176Z,2.07
2023-12-11T06:49:58.178Z,2.07
2023-12-11T06:52:34.730Z,2.06
2023-12-11T06:55:14.101Z,2.04
2023-12-11T06:56:20.391Z,2.03
2023-12-11T06:57:23.039Z,2.01
2023-12-11T06:58:30.154Z,2.00
2023-12-11T06:59:34.069Z,1.99
2023-12-11T07:00:37.538Z,1.97
2023-12-11T07:01:41.282Z,1.95
2023-12-11T07:02:44.351Z,1.93
2023-12-11T07:03:49.687Z,1.90
2023-12-11T07:04:52.649Z,1.87
2023-12-11T07:05:55.588Z,1.84
2023-12-11T07:07:01.264Z,1.80
2023-12-11T07:08:06.751Z,1.78
2023-12-11T07:09:17.699Z,1.77
2023-12-11T07:10:41.653Z,1.76
2023-12-11T07:12:05.519Z,1.76
2023-12-11T07:13:08.276Z,1.76
2023-12-11T07:14:11.030Z,1.76
2023-12-11T07:15:13.933Z,1.76
2023-12-11T07:16:17.032Z,1.77
2023-12-11T07:17:19.751Z,1.78
2023-12-11T07:18:23.433Z,1.78
2023-12-11T07:19:26.355Z,1.79
2023-12-11T07:20:28.997Z,1.81
2023-12-11T07:21:31.885Z,1.82
2023-12-11T07:22:36.575Z,1.84
2023-12-11T07:23:40.000Z,1.84
2023-12-11T07:24:42.719Z,1.86
2023-12-11T07:25:45.428Z,1.88
2023-12-11T07:26:48.107Z,1.90
2023-12-11T07:27:50.759Z,1.92
2023-12-11T07:28:54.098Z,1.94
2023-12-11T07:29:56.701Z,1.94
2023-12-11T07:31:00.178Z,1.96
2023-12-11T07:32:02.817Z,1.98
2023-12-11T07:33:05.650Z,1.99
2023-12-11T07:34:08.860Z,2.00
2023-12-11T07:35:12.922Z,2.02
2023-12-11T07:36:16.466Z,2.03
2023-12-11T07:37:19.218Z,2.04
2023-12-11T07:38:21.982Z,2.04
2023-12-11T07:39:24.731Z,2.03
2023-12-11T07:40:27.480Z,2.03
2023-12-11T07:41:30.143Z,2.02
2023-12-11T07:42:32.751Z,2.01
2023-12-11T07:43:35.415Z,2.00
2023-12-11T07:44:38.379Z,1.99
2023-12-11T07:45:42.016Z,1.99
2023-12-11T07:46:47.476Z,1.99
2023-12-11T07:47:53.122Z,2.00
2023-12-11T07:48:56.365Z,2.00
2023-12-11T07:50:02.575Z,2.01
2023-12-11T07:51:07.610Z,2.03
2023-12-11T07:52:11.779Z,2.06
2023-12-11T07:53:14.583Z,2.09
2023-12-11T07:54:17.944Z,2.11
2023-12-11T07:55:50.662Z,2.14
2023-12-11T07:56:56.777Z,2.19
2023-12-11T07:58:01.106Z,2.23
2023-12-11T07:59:08.546Z,2.27
2023-12-11T08:00:32.511Z,2.32
2023-12-11T08:01:35.507Z,2.38
2023-12-11T08:02:38.306Z,2.43
2023-12-11T08:03:41.408Z,2.47
2023-12-11T08:04:44.150Z,2.51
2023-12-11T08:05:46.902Z,2.55
2023-12-11T08:06:51.547Z,2.60
2023-12-11T08:07:54.217Z,2.65
2023-12-11T08:08:56.906Z,2.69
2023-12-11T08:09:59.560Z,2.73
2023-12-11T08:11:02.310Z,2.76
2023-12-11T08:12:05.505Z,2.79
2023-12-11T08:13:08.113Z,2.83
2023-12-11T08:14:10.778Z,2.85
2023-12-11T08:15:13.417Z,2.88
2023-12-11T08:16:16.631Z,2.91
2023-12-11T08:17:19.279Z,2.94
2023-12-11T08:18:22.020Z,2.96
2023-12-11T08:19:24.918Z,2.98
2023-12-11T08:20:28.810Z,3.00
2023-12-11T08:21:32.181Z,3.02
2023-12-11T08:22:34.780Z,3.05
2023-12-11T08:23:39.836Z,3.07
2023-12-11T08:24:42.615Z,3.09
2023-12-11T08:25:45.260Z,3.11
2023-12-11T08:26:48.325Z,3.12
2023-12-11T08:27:51.025Z,3.14
2023-12-11T08:28:53.755Z,3.16
2023-12-11T08:29:56.386Z,3.18
2023-12-11T08:30:59.104Z,3.19
2023-12-11T08:32:05.223Z,3.21
2023-12-11T08:33:09.166Z,3.22
2023-12-11T08:34:11.870Z,3.24
2023-12-11T08:35:14.572Z,3.26
2023-12-11T08:36:17.332Z,3.29
2023-12-11T08:37:20.219Z,3.33
2023-12-11T08:38:24.846Z,3.36
2023-12-11T08:39:27.491Z,3.40
2023-12-11T08:40:30.323Z,3.43
2023-12-11T08:41:32.928Z,3.46
2023-12-11T08:42:40.693Z,3.50
2023-12-11T08:43:44.577Z,3.54
2023-12-11T08:44:47.238Z,3.58
2023-12-11T08:45:50.466Z,3.62
2023-12-11T08:46:53.589Z,3.66
2023-12-11T08:47:56.555Z,3.70
2023-12-11T08:49:00.410Z,3.74
2023-12-11T08:50:05.432Z,3.78
2023-12-11T08:51:08.493Z,3.82
2023-12-11T08:52:13.257Z,3.85
2023-12-11T08:53:15.992Z,3.90
2023-12-11T08:54:19.964Z,3.93
2023-12-11T08:55:22.857Z,3.96
2023-12-11T08:56:28.857Z,3.99
2023-12-11T08:57:32.249Z,4.03
2023-12-11T08:58:35.110Z,4.08
2023-12-11T08:59:39.083Z,4.12
2023-12-11T09:00:41.903Z,4.16
2023-12-11T09:01:44.633Z,4.21
2023-12-11T09:02:47.275Z,4.27
2023-12-11T09:03:50.206Z,4.32
2023-12-11T09:04:53.062Z,4.38
2023-12-11T09:05:57.556Z,4.44
2023-12-11T09:07:00.712Z,4.51
2023-12-11T09:08:04.049Z,4.58
2023-12-11T09:09:07.169Z,4.64
2023-12-11T09:10:10.969Z,4.70
2023-12-11T09:11:13.611Z,4.76
2023-12-11T09:12:27.763Z,4.82
2023-12-11T09:13:36.312Z,4.89
2023-12-11T09:14:38.955Z,4.94
2023-12-11T09:15:41.635Z,5.00
2023-12-11T09:16:44.295Z,5.05
2023-12-11T09:17:47.134Z,5.09
2023-12-11T09:18:50.056Z,5.15
2023-12-11T09:19:55.771Z,5.23
2023-12-11T09:20:59.348Z,5.29
2023-12-11T09:22:02.260Z,5.35
2023-12-11T09:23:05.022Z,5.41
2023-12-11T09:24:07.816Z,5.46
2023-12-11T09:25:11.464Z,5.51
2023-12-11T09:26:14.235Z,5.55
2023-12-11T09:27:16.952Z,5.59
2023-12-11T09:28:19.742Z,5.63
2023-12-11T09:29:22.499Z,5.67
2023-12-11T09:30:25.215Z,5.70
2023-12-11T09:31:27.837Z,5.73
2023-12-11T09:32:30.555Z,5.74
2023-12-11T09:33:33.366Z,5.76
2023-12-11T09:34:36.239Z,5.80
2023-12-11T09:35:39.072Z,5.82
2023-12-11T09:36:41.948Z,5.84
2023-12-11T09:37:47.031Z,5.85
2023-12-11T09:38:49.682Z,5.86
2023-12-11T09:39:52.362Z,5.86
2023-12-11T09:40:55.553Z,5.87
2023-12-11T09:42:06.390Z,5.88
2023-12-11T09:43:11.281Z,5.90
2023-12-11T09:44:17.367Z,5.92
2023-12-11T09:45:25.219Z,5.94
2023-12-11T09:46:29.881Z,5.96
2023-12-11T09:47:39.399Z,5.98
2023-12-11T09:48:44.884Z,5.99
2023-12-11T09:49:49.470Z,6.00
2023-12-11T09:54:48.647Z,6.05
2023-12-11T09:55:51.894Z,6.06
2023-12-11T09:56:55.136Z,6.08
2023-12-11T09:57:58.300Z,6.09
2023-12-11T09:59:01.370Z,6.11
2023-12-11T10:00:07.762Z,6.13
2023-12-11T10:01:13.368Z,6.16
2023-12-11T10:02:17.159Z,6.18
2023-12-11T10:03:20.074Z,6.21
2023-12-11T10:04:22.952Z,6.22
2023-12-11T10:05:26.829Z,6.24
2023-12-11T10:06:29.870Z,6.24
2023-12-11T10:07:35.957Z,6.24
2023-12-11T10:08:45.500Z,6.25
2023-12-11T10:09:48.137Z,6.26
2023-12-11T10:10:50.805Z,6.27
2023-12-11T10:12:04.660Z,6.27
2023-12-11T10:13:07.522Z,6.29
2023-12-11T10:14:13.871Z,6.31
2023-12-11T10:15:27.719Z,6.32
2023-12-11T10:16:34.890Z,6.35
2023-12-11T10:17:37.530Z,6.38
2023-12-11T10:18:50.491Z,6.41
2023-12-11T10:19:53.564Z,6.44
2023-12-11T10:20:58.829Z,6.47
2023-12-11T10:22:04.932Z,6.50
2023-12-11T10:23:19.717Z,6.52
2023-12-11T10:24:23.776Z,6.54
2023-12-11T10:25:27.871Z,6.56
2023-12-11T10:26:34.952Z,6.58
2023-12-11T10:27:37.678Z,6.60
2023-12-11T10:28:41.634Z,6.61
2023-12-11T10:29:44.285Z,6.63
2023-12-11T10:30:52.193Z,6.65
2023-12-11T10:32:04.273Z,6.66
2023-12-11T10:33:08.468Z,6.68
2023-12-11T10:34:13.718Z,6.70
2023-12-11T10:35:26.778Z,6.71
2023-12-11T10:36:44.066Z,6.73
2023-12-11T10:40:08.286Z,6.76
2023-12-11T10:41:32.758Z,6.79
2023-12-11T10:46:56.901Z,6.86
2023-12-11T10:48:26.608Z,6.87
2023-12-11T10:49:30.950Z,6.88
2023-12-11T10:50:35.229Z,6.88
2023-12-11T10:51:38.512Z,6.88
2023-12-11T10:52:43.777Z,6.89
2023-12-11T10:53:47.248Z,6.89
2023-12-11T10:54:49.982Z,6.89
2023-12-11T10:55:54.489Z,6.89
2023-12-11T10:56:58.350Z,6.89
2023-12-11T10:58:04.970Z,6.90
2023-12-11T10:59:07.947Z,6.89
2023-12-11T11:00:15.264Z,6.89
2023-12-11T11:01:18.625Z,6.89
2023-12-11T11:02:24.122Z,6.89
2023-12-11T11:03:27.083Z,6.88
2023-12-11T11:04:34.480Z,6.87
2023-12-11T11:05:37.786Z,6.86
2023-12-11T11:07:07.877Z,6.85
2023-12-11T11:08:13.461Z,6.84
2023-12-11T11:09:25.618Z,6.83
2023-12-11T11:10:51.552Z,6.83
2023-12-11T11:12:03.724Z,6.83
2023-12-11T11:13:15.941Z,6.82
2023-12-11T11:14:43.512Z,6.81
2023-12-11T11:15:52.644Z,6.81
2023-12-11T11:17:00.349Z,6.80
2023-12-11T11:18:07.309Z,6.80
2023-12-11T11:19:10.443Z,6.79
2023-12-11T11:20:16.031Z,6.78
2023-12-11T11:21:18.886Z,6.78
2023-12-11T11:22:31.267Z,6.78
2023-12-11T11:23:47.106Z,6.78
2023-12-11T11:24:49.918Z,6.78
2023-12-11T11:25:55.726Z,6.77
2023-12-11T11:26:59.306Z,6.77
2023-12-11T11:28:04.421Z,6.76
2023-12-11T11:29:22.649Z,6.76
2023-12-11T11:30:48.814Z,6.76
2023-12-11T11:32:17.431Z,6.75
2023-12-11T11:35:00.741Z,6.74
2023-12-11T11:52:16.067Z,6.72
2023-12-11T11:53:20.023Z,6.73
2023-12-11T11:54:26.667Z,6.73
2023-12-11T11:55:29.870Z,6.74
2023-12-11T11:56:32.741Z,6.75
2023-12-11T11:57:37.600Z,6.75
2023-12-11T11:58:40.389Z,6.76
2023-12-11T11:59:46.683Z,6.76
2023-12-11T12:00:50.770Z,6.77
2023-12-11T12:01:55.445Z,6.78
2023-12-11T12:03:04.868Z,6.79
2023-12-11T12:04:07.742Z,6.80
2023-12-11T12:05:12.180Z,6.81
2023-12-11T12:06:18.687Z,6.81
2023-12-11T12:07:21.574Z,6.82
2023-12-11T12:09:41.822Z,6.82
2023-12-11T12:10:44.608Z,6.82
2023-12-11T12:11:47.411Z,6.82
2023-12-11T12:12:57.060Z,6.83
2023-12-11T12:14:01.002Z,6.84
2023-12-11T12:15:06.034Z,6.86
2023-12-11T12:16:08.878Z,6.86
2023-12-11T12:17:12.285Z,6.87
2023-12-11T12:18:15.214Z,6.87
2023-12-11T12:19:18.825Z,6.88
2023-12-11T12:20:22.054Z,6.89
2023-12-11T12:21:32.868Z,6.89
2023-12-11T12:22:38.383Z,6.89
2023-12-11T12:23:46.453Z,6.89
2023-12-11T12:24:51.306Z,6.88
2023-12-11T12:26:23.055Z,6.87
2023-12-11T12:27:36.587Z,6.86
2023-12-11T12:42:12.344Z,6.85
2023-12-11T12:43:54.916Z,6.85
2023-12-11T12:45:35.334Z,6.86
2023-12-11T12:46:43.346Z,6.87
2023-12-11T12:47:49.266Z,6.87
2023-12-11T12:48:52.006Z,6.87
2023-12-11T12:49:54.710Z,6.87
2023-12-11T12:51:13.265Z,6.87
2023-12-11T12:52:28.746Z,6.87
2023-12-11T12:53:31.469Z,6.87
2023-12-11T12:54:55.183Z,6.87
2023-12-11T12:55:57.827Z,6.87
2023-12-11T12:57:00.542Z,6.87
2023-12-11T12:58:03.918Z,6.87
2023-12-11T12:59:06.882Z,6.86
2023-12-11T13:01:12.189Z,6.85
2023-12-11T13:02:18.788Z,6.85
2023-12-11T13:03:26.846Z,6.84
2023-12-11T13:04:29.783Z,6.82
2023-12-11T13:05:43.480Z,6.80
2023-12-11T13:06:50.117Z,6.78
2023-12-11T13:08:00.816Z,6.75
2023-12-11T13:09:04.876Z,6.73
2023-12-11T13:10:13.421Z,6.71
2023-12-11T13:11:16.758Z,6.69
2023-12-11T13:12:20.124Z,6.66
2023-12-11T13:13:28.264Z,6.63
2023-12-11T13:14:31.646Z,6.59
2023-12-11T13:15:34.799Z,6.57
2023-12-11T13:16:38.707Z,6.55
2023-12-11T13:17:41.452Z,6.52
2023-12-11T13:18:44.206Z,6.49
2023-12-11T13:19:47.678Z,6.47
2023-12-11T13:21:01.770Z,6.45
2023-12-11T13:22:09.785Z,6.43
2023-12-11T13:23:50.777Z,6.41
2023-12-11T13:25:20.283Z,6.39
2023-12-11T13:26:25.706Z,6.37
2023-12-11T13:40:58.324Z,7.19
2023-12-11T13:42:01.005Z,6.61
2023-12-11T13:43:03.806Z,6.65
2023-12-11T13:44:06.522Z,6.66
2023-12-11T13:45:09.663Z,6.66
2023-12-11T13:46:12.398Z,6.66
2023-12-11T13:47:15.151Z,6.66
2023-12-11T13:48:17.929Z,6.66
2023-12-11T13:49:20.662Z,6.65
2023-12-11T13:50:23.431Z,6.64
2023-12-11T13:51:26.161Z,6.65
2023-12-11T13:52:28.867Z,6.64
2023-12-11T13:53:31.538Z,6.64
2023-12-11T13:54:34.257Z,6.64
2023-12-11T13:55:36.899Z,6.63
2023-12-11T13:56:39.482Z,6.62
2023-12-11T13:57:42.166Z,6.60
2023-12-11T13:58:44.755Z,6.59
2023-12-11T13:59:47.504Z,6.58
2023-12-11T14:00:50.641Z,6.58
2023-12-11T14:01:53.425Z,6.56
2023-12-11T14:03:01.531Z,6.55
2023-12-11T14:04:07.077Z,6.54
2023-12-11T14:05:10.269Z,6.53
2023-12-11T14:06:15.054Z,6.52
2023-12-11T14:07:18.314Z,6.51
2023-12-11T14:08:23.542Z,6.49
2023-12-11T14:09:27.337Z,6.48
2023-12-11T14:10:31.900Z,6.46
2023-12-11T14:11:34.613Z,6.45
2023-12-11T14:12:40.739Z,6.44
2023-12-11T14:13:44.064Z,6.42
2023-12-11T14:14:47.241Z,6.41
2023-12-11T14:15:49.926Z,6.41
2023-12-11T14:16:52.831Z,6.40
2023-12-11T14:17:55.677Z,6.39
2023-12-11T14:18:58.390Z,6.38
2023-12-11T14:20:01.450Z,6.36
2023-12-11T14:21:05.440Z,6.34
2023-12-11T14:22:08.129Z,6.32
2023-12-11T14:23:10.853Z,6.30
2023-12-11T14:24:13.500Z,6.29
2023-12-11T14:25:16.543Z,6.28
2023-12-11T14:26:19.180Z,6.26
2023-12-11T14:27:24.192Z,6.25
2023-12-11T14:28:27.383Z,6.25
2023-12-11T14:29:30.084Z,6.24
2023-12-11T14:30:39.276Z,6.23
2023-12-11T14:31:41.963Z,6.22
2023-12-11T14:32:44.773Z,6.21
2023-12-11T14:33:47.717Z,6.18
2023-12-11T14:34:50.670Z,6.14
2023-12-11T14:35:53.300Z,6.11
2023-12-11T14:36:55.965Z,6.08
2023-12-11T14:37:58.597Z,6.05
2023-12-11T14:39:01.832Z,6.02
2023-12-11T14:40:04.942Z,5.99
2023-12-11T14:41:08.027Z,5.97
2023-12-11T14:42:11.480Z,5.96
2023-12-11T14:43:14.449Z,5.94
2023-12-11T14:44:17.472Z,5.92
2023-12-11T14:45:20.270Z,5.89
2023-12-11T14:46:22.974Z,5.87
2023-12-11T14:47:26.287Z,5.85
2023-12-11T14:48:29.085Z,5.83
2023-12-11T14:49:31.865Z,5.81
2023-12-11T14:50:34.680Z,5.78
2023-12-11T14:51:40.522Z,5.76
2023-12-11T14:52:43.664Z,5.74
2023-12-11T14:53:46.385Z,5.72
2023-12-11T14:54:49.059Z,5.70
2023-12-11T14:55:52.105Z,5.68
2023-12-11T14:56:55.369Z,5.67
2023-12-11T14:57:57.985Z,5.64
2023-12-11T14:59:00.678Z,5.61
2023-12-11T15:00:03.698Z,5.58
2023-12-11T15:01:06.404Z,5.56
2023-12-11T15:02:10.885Z,5.54
2023-12-11T15:03:13.621Z,5.51
2023-12-11T15:04:16.345Z,5.48
2023-12-11T15:05:19.198Z,5.46
2023-12-11T15:06:21.934Z,5.43
2023-12-11T15:07:24.750Z,5.40
2023-12-11T15:08:29.336Z,5.38
2023-12-11T15:09:35.665Z,5.35
2023-12-11T15:10:38.410Z,5.33
2023-12-11T15:11:41.270Z,5.30
2023-12-11T15:12:44.319Z,5.27
2023-12-11T15:13:48.240Z,5.24
2023-12-11T15:14:51.881Z,5.22
2023-12-11T15:15:54.841Z,5.19
2023-12-11T15:16:57.866Z,5.17
2023-12-11T15:18:00.611Z,5.14